createdAt,value
2018-01-27T12:52:57.119Z,6.10
2018-01-27T12:58:57.611Z,6.43
2018-01-27T13:01:24.663Z,5.63
2018-01-27T13:03:51.607Z,5.97
2018-01-27T13:06:18.470Z,5.40
2018-01-27T13:08:45.404Z,7.20
2018-01-27T13:11:12.270Z,8.77
2018-01-27T13:13:39.317Z,9.93
2018-01-27T13:16:06.272Z,20.70
2018-01-27T13:18:33.428Z,20.90
2018-01-27T13:21:00.371Z,17.50
2018-01-27T13:24:53.244Z,19.40
2018-01-27T13:27:20.167Z,15.10
2018-01-27T13:29:47.176Z,15.00
2018-01-27T13:32:13.945Z,11.00
2018-01-27T13:34:40.762Z,12.10
2018-01-27T13:37:07.743Z,10.00
2018-01-27T13:39:34.573Z,11.70
2018-01-27T13:42:01.644Z,11.67
2018-01-27T13:44:28.487Z,11.07
2018-01-27T13:46:55.305Z,11.43
2018-01-27T13:49:21.977Z,12.77
2018-01-27T13:51:48.825Z,14.03
2018-01-27T13:54:15.567Z,15.30
2018-01-27T13:56:42.570Z,14.20
2018-01-27T13:59:09.488Z,14.33
2018-01-27T14:01:36.296Z,13.80
2018-01-27T14:04:03.537Z,13.83
2018-01-27T14:06:30.555Z,13.10
2018-01-27T14:08:58.332Z,13.17
2018-01-27T14:17:19.728Z,14.07
2018-01-27T14:19:46.943Z,13.77
2018-01-27T14:22:27.430Z,13.80
2018-01-27T14:24:54.172Z,13.10
2018-01-27T14:27:20.884Z,13.30
2018-01-27T14:29:47.769Z,13.50
2018-01-27T14:32:14.822Z,12.77
2018-01-27T14:34:41.870Z,13.37
2018-01-27T14:37:08.828Z,13.73
2018-01-27T14:39:35.816Z,13.87
2018-01-27T14:42:03.271Z,13.80
2018-01-27T14:44:30.301Z,13.67
2018-01-27T14:46:57.040Z,12.37
2018-01-27T14:49:23.813Z,13.00
2018-01-27T14:51:51.203Z,13.20
2018-01-27T14:54:18.120Z,13.50
2018-01-27T14:56:45.493Z,13.53
2018-01-27T14:59:12.308Z,13.80
2018-01-27T15:04:36.211Z,13.30
2018-01-27T15:07:03.037Z,13.13
2018-01-27T15:09:30.155Z,14.00
2018-01-27T15:11:57.140Z,12.50
2018-01-27T15:14:24.195Z,13.13
2018-01-27T15:16:51.319Z,12.97
2018-01-27T15:19:18.224Z,13.10
2018-01-27T15:21:45.048Z,12.03
2018-01-27T15:24:12.103Z,12.80
2018-01-27T15:26:38.739Z,13.10
2018-01-27T15:29:05.581Z,12.60
2018-01-27T15:31:32.294Z,12.93
2018-01-27T15:33:59.104Z,12.10
2018-01-27T15:36:26.185Z,13.47
2018-01-27T15:38:53.207Z,11.70
2018-01-27T15:41:20.073Z,11.83
2018-01-27T15:43:46.790Z,11.47
2018-01-27T15:46:13.439Z,10.60
2018-01-27T15:48:41.002Z,9.53
2018-01-27T15:51:08.343Z,12.40
2018-01-27T15:53:35.303Z,9.73
2018-01-27T15:56:02.244Z,9.60
2018-01-27T15:58:29.009Z,8.60
2018-01-27T16:00:56.048Z,8.90
2018-01-27T16:03:22.911Z,10.30
2018-01-27T16:05:49.697Z,9.77
2018-01-27T16:08:16.869Z,8.77
2018-01-27T16:10:43.760Z,8.80
2018-01-27T16:13:10.652Z,8.93
2018-01-27T16:15:37.649Z,9.93
2018-01-27T16:18:04.512Z,9.33
2018-01-27T16:20:31.500Z,9.47
2018-01-27T16:22:58.607Z,9.70
2018-01-27T16:25:25.655Z,10.90
2018-01-27T16:27:52.415Z,9.90
2018-01-27T16:30:19.268Z,9.63
2018-01-27T16:32:46.002Z,9.23
2018-01-27T16:35:12.739Z,9.50
2018-01-27T16:37:39.728Z,9.57
2018-01-27T16:40:06.605Z,8.60
2018-01-27T16:42:33.600Z,8.70
2018-01-27T16:45:00.864Z,9.00
2018-01-27T16:47:27.789Z,8.03
2018-01-27T16:49:54.866Z,10.20
2018-01-27T16:52:21.942Z,9.37
2018-01-27T16:54:49.632Z,10.87
2018-01-27T16:57:16.618Z,10.13
2018-01-27T16:59:43.385Z,7.13
2018-01-27T17:02:10.104Z,7.10
2018-01-27T17:04:37.065Z,7.33
2018-01-27T17:07:03.863Z,7.83
2018-01-27T17:09:30.760Z,7.43
2018-01-27T17:11:57.765Z,7.13
2018-01-27T17:14:24.869Z,7.43
2018-01-27T17:16:51.713Z,7.53
2018-01-27T17:19:18.645Z,6.97
2018-01-27T17:21:45.957Z,7.83
2018-01-27T17:24:13.116Z,7.93
2018-01-27T17:26:40.261Z,6.90
2018-01-27T17:29:07.282Z,7.50
2018-01-27T17:31:34.079Z,7.20
2018-01-27T17:42:53.729Z,7.00
2018-01-27T17:45:20.784Z,7.00
2018-01-27T17:47:47.180Z,7.63
2018-01-27T17:50:13.717Z,7.47
2018-01-27T17:52:40.105Z,7.33
2018-01-27T17:55:06.513Z,8.23
2018-01-27T17:57:32.887Z,6.80
2018-01-27T17:59:59.477Z,7.10
2018-01-27T18:02:25.860Z,6.43
2018-01-27T18:04:52.514Z,7.63
2018-01-27T18:07:19.104Z,7.13
2018-01-27T18:09:45.509Z,7.90
2018-01-27T18:12:11.932Z,7.87
2018-01-27T18:14:38.303Z,6.53
2018-01-27T18:17:04.663Z,7.53
2018-01-27T18:19:31.029Z,7.00
2018-01-27T18:21:57.412Z,7.40
2018-01-27T18:24:24.669Z,7.00
2018-01-27T18:26:51.053Z,7.87
2018-01-27T18:29:17.441Z,7.90
2018-01-27T18:31:43.799Z,6.90
2018-01-27T18:34:10.173Z,7.00
2018-01-27T18:36:36.545Z,7.83
2018-01-27T18:39:03.024Z,6.87
2018-01-27T18:41:29.409Z,7.07
2018-01-27T18:43:55.788Z,6.83
2018-01-27T18:46:22.263Z,7.87
2018-01-27T18:48:48.690Z,6.77
2018-01-27T18:51:15.036Z,7.53
2018-01-27T18:53:41.427Z,7.50
2018-01-27T18:56:07.832Z,8.60
2018-01-27T18:58:34.223Z,7.00
2018-01-27T19:01:00.575Z,7.20
2018-01-27T19:03:26.953Z,7.90
2018-01-27T19:05:53.336Z,7.60
2018-01-27T19:08:19.700Z,7.60
2018-01-27T19:10:46.457Z,7.30
2018-01-27T19:13:12.890Z,6.70
2018-01-27T19:15:39.340Z,8.03
2018-01-27T19:18:05.751Z,8.37
2018-01-27T19:20:32.341Z,6.83
2018-01-27T19:22:58.976Z,6.50
2018-01-27T19:25:25.439Z,7.03
2018-01-27T19:27:52.006Z,6.73
2018-01-27T19:30:18.797Z,6.67
2018-01-27T19:32:45.317Z,6.87
2018-01-27T19:35:11.921Z,8.10
2018-01-27T19:37:38.306Z,7.20
2018-01-27T19:40:05.288Z,7.33
2018-01-27T19:42:32.418Z,7.30
2018-01-27T19:44:58.861Z,7.50
2018-01-27T19:47:25.259Z,7.67
2018-01-27T19:49:51.629Z,6.90
2018-01-27T19:52:18.126Z,7.53
2018-01-27T19:54:44.595Z,6.43
2018-01-27T19:57:10.957Z,6.10
2018-01-27T19:59:37.354Z,6.80
2018-01-27T20:02:03.826Z,6.90
2018-01-27T20:04:30.573Z,8.20
2018-01-27T20:06:56.961Z,8.17
2018-01-27T20:09:23.324Z,7.37
2018-01-27T20:11:49.712Z,7.83
2018-01-27T20:14:16.848Z,9.43
2018-01-27T20:16:43.644Z,7.77
2018-01-27T20:19:10.004Z,7.33
2018-01-27T20:21:36.419Z,7.50
2018-01-27T20:24:02.841Z,7.27
2018-01-27T20:26:29.208Z,7.50
2018-01-27T20:28:55.769Z,7.17
2018-01-27T20:31:22.184Z,8.00
2018-01-27T20:33:48.575Z,6.93
2018-01-27T20:36:16.536Z,7.80
2018-01-27T20:38:42.999Z,7.90
2018-01-27T20:41:10.597Z,7.50
2018-01-27T20:43:38.280Z,8.87
2018-01-27T20:46:04.685Z,8.13
2018-01-27T20:48:31.900Z,8.30
2018-01-27T20:50:58.297Z,9.53
2018-01-27T20:59:44.900Z,8.00
2018-01-27T21:02:11.275Z,8.70
2018-01-27T21:04:37.648Z,7.80
2018-01-27T21:07:04.097Z,8.23
2018-01-27T21:09:30.514Z,11.20
2018-01-27T21:11:56.938Z,7.90
2018-01-27T21:14:23.595Z,8.60
2018-01-27T21:16:50.015Z,8.67
2018-01-27T21:19:16.415Z,9.57
2018-01-27T21:24:39.337Z,9.10
2018-01-27T21:27:05.681Z,8.50
2018-01-27T21:29:32.078Z,8.80
2018-01-27T21:31:58.492Z,8.63
2018-01-27T21:34:25.679Z,7.90
2018-01-27T21:36:52.035Z,8.63
2018-01-27T21:39:18.382Z,7.97
2018-01-27T21:41:44.752Z,7.87
2018-01-27T21:44:11.154Z,7.70
2018-01-27T21:46:37.548Z,7.70
2018-01-27T21:49:04.034Z,7.90
2018-01-27T21:51:30.438Z,8.13
2018-01-27T21:53:56.845Z,7.60
2018-01-27T21:56:23.944Z,7.60
2018-01-27T21:58:50.299Z,7.83
2018-01-27T22:01:16.911Z,7.63
2018-01-27T22:03:43.306Z,8.30
2018-01-27T22:06:09.706Z,7.50
2018-01-27T22:08:36.177Z,7.90
2018-01-27T22:11:02.551Z,7.13
2018-01-27T22:13:28.939Z,6.80
2018-01-27T22:18:52.059Z,7.60
2018-01-27T22:21:18.472Z,6.50
2018-01-27T22:23:44.825Z,7.60
2018-01-27T22:26:12.128Z,6.20
2018-01-27T22:28:38.498Z,6.70
2018-01-27T22:31:04.880Z,7.63
2018-01-27T22:33:31.256Z,6.60
2018-01-27T22:35:57.812Z,11.33
2018-01-27T22:38:24.920Z,6.47
2018-01-27T22:40:51.310Z,6.80
2018-01-27T22:43:17.709Z,6.33
2018-01-27T22:45:44.068Z,7.40
2018-01-27T22:48:10.496Z,5.87
2018-01-27T22:50:36.873Z,6.40
2018-01-27T22:53:03.232Z,6.60
2018-01-27T22:55:29.629Z,6.10
2018-01-27T22:57:56.727Z,6.53
2018-01-27T23:03:37.057Z,5.90
2018-01-27T23:09:00.791Z,6.03
2018-01-27T23:11:27.171Z,5.87
2018-01-27T23:13:53.560Z,5.10
2018-01-27T23:16:19.907Z,6.30
2018-01-27T23:18:46.276Z,5.20
2018-01-27T23:21:12.624Z,5.57
2018-01-27T23:26:35.518Z,5.53
2018-01-27T23:29:15.127Z,5.93
2018-01-27T23:31:42.235Z,5.20
2018-01-27T23:34:08.629Z,5.90
2018-01-27T23:36:34.978Z,6.03
2018-01-27T23:39:01.375Z,7.93
2018-01-27T23:41:28.496Z,6.07
2018-01-27T23:43:54.829Z,6.47
2018-01-27T23:46:21.160Z,5.23
2018-01-27T23:48:47.523Z,5.00
2018-01-27T23:51:13.891Z,4.33
2018-01-27T23:53:40.995Z,4.60
2018-01-27T23:56:07.347Z,4.37
2018-01-27T23:58:33.709Z,4.00
